Time;durP1;ratioP1;P1;durP2;ratioP2;P2;SDS_P1;SDS_P2;PMS_P1;PMS_P2;Temp;Humidity;BMP_temperature;BMP_pressure;BME280_temperature;BME280_humidity;BME280_pressure;Samples;Min_cycle;Max_cycle;Signal;HPM_P1;HPM_P2
2024/01/24 00:02:41;;;;;;;13.70;12.43;;;;;;;10.40;nan;100582.16;10288966;28;20039;-71
2024/01/24 00:07:41;;;;;;;12.95;11.55;;;;;;;10.76;nan;100630.09;10314372;28;20426;-78
2024/01/24 00:12:42;;;;;;;14.15;12.82;;;;;;;10.75;nan;100613.81;10315901;28;20399;-80
2024/01/24 00:17:42;;;;;;;14.75;11.65;;;;;;;10.79;nan;100617.72;10318698;28;20093;-77
2024/01/24 00:22:43;;;;;;;11.63;10.45;;;;;;;10.84;nan;100646.16;10301341;28;20035;-79
2024/01/24 00:27:43;;;;;;;9.13;7.18;;;;;;;10.92;nan;100679.81;10319829;28;20068;-80
2024/01/24 00:32:44;;;;;;;12.30;7.22;;;;;;;11.05;nan;100655.41;10312200;28;20034;-78
2024/01/24 00:37:45;;;;;;;7.75;6.18;;;;;;;11.00;nan;100643.53;10315815;28;20049;-80
2024/01/24 00:42:45;;;;;;;13.70;12.60;;;;;;;10.73;nan;100585.72;10316445;28;20053;-80
2024/01/24 00:47:46;;;;;;;14.55;12.15;;;;;;;10.95;nan;100641.53;10321938;28;20599;-82
2024/01/24 00:52:51;;;;;;;19.33;10.85;;;;;;;10.94;nan;100653.66;10313838;28;20042;-81
2024/01/24 00:57:52;;;;;;;15.63;10.27;;;;;;;10.89;nan;100595.78;10314765;28;20101;-81
2024/01/24 01:02:52;;;;;;;10.95;9.23;;;;;;;10.75;nan;100569.78;10318447;28;20486;-80
2024/01/24 01:07:53;;;;;;;8.75;7.78;;;;;;;11.09;nan;100584.91;10332322;28;20474;-78
2024/01/24 01:12:54;;;;;;;11.20;8.32;;;;;;;11.04;nan;100582.13;10324474;28;20035;-78
2024/01/24 01:17:54;;;;;;;12.38;7.57;;;;;;;11.08;nan;100572.25;10320659;28;20106;-77
2024/01/24 01:22:55;;;;;;;9.35;7.22;;;;;;;11.09;nan;100571.13;10324696;28;20199;-79
2024/01/24 01:27:55;;;;;;;12.23;10.30;;;;;;;11.01;nan;100565.28;10302797;28;20101;-82
2024/01/24 01:32:56;;;;;;;18.95;13.27;;;;;;;10.82;nan;100565.72;10322997;28;20047;-82
2024/01/24 01:37:56;;;;;;;11.75;10.85;;;;;;;10.85;nan;100578.13;10326467;28;20042;-87
2024/01/24 01:42:56;;;;;;;9.88;9.02;;;;;;;11.06;nan;100568.94;10325001;28;20038;-84
2024/01/24 01:47:57;;;;;;;14.25;10.55;;;;;;;11.13;nan;100581.63;10300097;28;20035;-80
2024/01/24 01:52:58;;;;;;;8.80;7.38;;;;;;;11.29;nan;100583.41;10289824;28;20041;-84
2024/01/24 01:57:58;;;;;;;5.57;5.07;;;;;;;11.45;nan;100582.41;10287443;28;20126;-84
2024/01/24 02:02:59;;;;;;;5.18;3.20;;;;;;;11.64;nan;100570.91;10322119;28;20046;-74
2024/01/24 02:08:00;;;;;;;8.77;3.90;;;;;;;11.49;nan;100610.22;10319992;28;20121;-83
2024/01/24 02:13:00;;;;;;;7.90;4.03;;;;;;;11.36;nan;100595.00;10309138;28;20039;-84
2024/01/24 02:18:00;;;;;;;2.97;2.40;;;;;;;11.34;nan;100568.81;10319369;28;20054;-79
2024/01/24 02:23:02;;;;;;;4.82;2.33;;;;;;;11.48;nan;100601.16;10322538;28;20049;-90
2024/01/24 02:28:02;;;;;;;6.30;2.50;;;;;;;11.41;nan;100581.28;10310391;28;20038;-84
2024/01/24 02:33:03;;;;;;;7.03;2.85;;;;;;;11.34;nan;100588.94;10305808;28;20043;-75
2024/01/24 02:38:04;;;;;;;7.97;3.25;;;;;;;11.23;nan;100579.78;10321323;28;20045;-83
2024/01/24 02:43:05;;;;;;;5.30;2.30;;;;;;;11.20;nan;100569.28;10313379;28;20410;-83
2024/01/24 02:48:05;;;;;;;6.03;2.08;;;;;;;11.20;nan;100591.31;10305961;28;20118;-80
2024/01/24 02:53:06;;;;;;;10.05;2.30;;;;;;;11.18;nan;100576.97;10315497;28;20483;-82
2024/01/24 02:58:06;;;;;;;4.38;1.85;;;;;;;11.20;nan;100588.56;10309574;28;20495;-78
2024/01/24 03:03:07;;;;;;;7.22;1.88;;;;;;;11.11;nan;100603.94;10318853;28;20078;-78
2024/01/24 03:08:07;;;;;;;8.80;1.95;;;;;;;11.06;nan;100555.16;10311331;28;20042;-81
2024/01/24 03:13:08;;;;;;;5.88;1.65;;;;;;;10.91;nan;100588.09;10319381;28;20061;-82
2024/01/24 03:18:08;;;;;;;11.23;2.15;;;;;;;10.86;nan;100640.38;10301077;28;20039;-81
2024/01/24 03:23:09;;;;;;;12.82;2.40;;;;;;;10.74;nan;100604.75;10314238;28;20069;-86
2024/01/24 03:28:09;;;;;;;11.10;1.90;;;;;;;10.77;nan;100626.25;10319972;28;20043;-87
2024/01/24 03:33:10;;;;;;;12.85;2.53;;;;;;;10.67;nan;100577.44;10315753;28;20047;-81
2024/01/24 03:38:10;;;;;;;11.27;1.73;;;;;;;10.64;nan;100602.72;10299788;28;20046;-85
2024/01/24 03:43:11;;;;;;;15.35;3.20;;;;;;;10.46;nan;100625.16;10310426;28;20053;-84
2024/01/24 03:48:11;;;;;;;12.25;2.35;;;;;;;10.57;nan;100635.16;10314884;28;20039;-87
2024/01/24 03:53:11;;;;;;;22.45;4.68;;;;;;;10.48;nan;100611.97;10313031;28;20046;-82
2024/01/24 03:58:12;;;;;;;14.35;3.00;;;;;;;10.47;nan;100602.03;10313265;28;20046;-87
2024/01/24 04:03:12;;;;;;;15.90;3.28;;;;;;;10.46;nan;100625.97;10297585;28;20101;-79
2024/01/24 04:08:13;;;;;;;8.38;2.90;;;;;;;10.35;nan;100606.84;10288388;28;20069;-84
2024/01/24 04:13:14;;;;;;;19.58;3.60;;;;;;;10.47;nan;100621.28;10312417;28;20058;-82
2024/01/24 04:18:14;;;;;;;19.90;3.33;;;;;;;10.45;nan;100623.47;10319752;28;20042;-81
2024/01/24 04:23:15;;;;;;;16.20;4.05;;;;;;;10.44;nan;100616.31;10313299;28;20043;-83
2024/01/24 04:28:15;;;;;;;25.15;4.13;;;;;;;10.47;nan;100635.06;10315843;28;20042;-86
2024/01/24 04:33:16;;;;;;;22.02;3.15;;;;;;;10.37;nan;100630.25;10318490;28;20061;-79
2024/01/24 04:38:16;;;;;;;21.27;4.43;;;;;;;9.98;nan;100622.09;10305769;28;20039;-82
2024/01/24 04:43:19;;;;;;;18.83;4.35;;;;;;;9.90;nan;100694.03;10314609;28;20042;-88
2024/01/24 04:48:19;;;;;;;28.52;5.13;;;;;;;9.78;nan;100676.84;10315417;28;20050;-85
2024/01/24 04:53:20;;;;;;;21.10;4.88;;;;;;;9.47;nan;100688.22;10323472;28;20066;-85
2024/01/24 04:58:20;;;;;;;27.45;5.03;;;;;;;9.34;nan;100687.72;10297422;28;20046;-88
2024/01/24 05:03:21;;;;;;;25.50;5.15;;;;;;;9.48;nan;100709.09;10316792;28;20439;-83
2024/01/24 05:08:22;;;;;;;23.52;4.22;;;;;;;9.36;nan;100694.63;10311709;28;20039;-82
2024/01/24 05:13:22;;;;;;;26.23;4.65;;;;;;;9.49;nan;100727.28;10316966;28;20050;-81
2024/01/24 05:18:23;;;;;;;24.08;6.70;;;;;;;9.41;nan;100729.59;10310280;28;20038;-83
2024/01/24 05:23:23;;;;;;;22.30;4.53;;;;;;;9.31;nan;100718.44;10319717;28;20042;-79
2024/01/24 05:28:24;;;;;;;26.25;5.65;;;;;;;9.08;nan;100692.81;10309865;28;20086;-85
2024/01/24 05:33:24;;;;;;;28.60;4.78;;;;;;;9.47;nan;100715.69;10317247;28;20039;-82
2024/01/24 05:38:25;;;;;;;26.00;6.00;;;;;;;9.42;nan;100729.34;10315912;28;20053;-82
2024/01/24 05:43:25;;;;;;;29.48;4.97;;;;;;;9.57;nan;100730.66;10312773;28;20069;-83
2024/01/24 05:48:26;;;;;;;32.75;5.65;;;;;;;9.55;nan;100741.06;10326086;28;20043;-86
2024/01/24 05:53:26;;;;;;;29.98;6.80;;;;;;;9.58;nan;100768.06;10322223;28;20441;-82
2024/01/24 05:58:27;;;;;;;31.88;7.72;;;;;;;9.63;nan;100765.38;10317336;28;20506;-85
2024/01/24 06:03:27;;;;;;;36.42;7.22;;;;;;;9.59;nan;100769.72;10318304;28;20039;-82
2024/01/24 06:08:29;;;;;;;27.08;6.28;;;;;;;9.64;nan;100769.81;10307609;28;20038;-78
2024/01/24 06:13:29;;;;;;;28.50;6.47;;;;;;;9.54;nan;100777.91;10319648;28;20046;-83
2024/01/24 06:18:30;;;;;;;39.90;7.18;;;;;;;9.58;nan;100751.59;10316010;28;20063;-72
2024/01/24 06:23:30;;;;;;;32.78;5.90;;;;;;;9.57;nan;100761.75;10323738;28;20101;-83
2024/01/24 06:28:31;;;;;;;22.95;5.22;;;;;;;9.63;nan;100781.88;10317315;28;20046;-84
2024/01/24 06:33:32;;;;;;;31.08;6.90;;;;;;;9.72;nan;100796.06;10292832;28;20344;-86
2024/01/24 06:38:32;;;;;;;21.48;4.90;;;;;;;9.68;nan;100793.81;10315258;28;20055;-79
2024/01/24 06:43:35;;;;;;;39.08;8.18;;;;;;;9.57;nan;100815.88;10313231;28;20046;-81
2024/01/24 06:48:35;;;;;;;31.55;7.85;;;;;;;9.55;nan;100815.28;10315275;28;20039;-78
2024/01/24 06:53:36;;;;;;;40.53;6.43;;;;;;;9.60;nan;100815.38;10313972;28;20529;-78
2024/01/24 06:58:40;;;;;;;27.75;5.40;;;;;;;9.37;nan;100816.38;10319240;28;20494;-78
2024/01/24 07:03:41;;;;;;;29.40;5.97;;;;;;;9.43;nan;100832.69;10300197;28;20134;-79
2024/01/24 07:08:41;;;;;;;33.75;8.18;;;;;;;9.38;nan;100812.53;10318351;28;20491;-79
2024/01/24 07:13:42;;;;;;;24.20;5.10;;;;;;;9.38;nan;100873.78;10318983;28;20043;-79
2024/01/24 07:18:42;;;;;;;23.90;6.32;;;;;;;9.34;nan;100867.13;10315723;28;20059;-79
2024/01/24 07:23:43;;;;;;;29.75;7.38;;;;;;;9.50;nan;100855.34;10302793;28;20095;-84
2024/01/24 07:28:43;;;;;;;24.10;6.25;;;;;;;9.53;nan;100842.19;10320561;28;20057;-84
2024/01/24 07:33:43;;;;;;;30.70;7.47;;;;;;;9.57;nan;100855.19;10312142;28;20047;-81
2024/01/24 07:38:44;;;;;;;24.15;4.95;;;;;;;9.61;nan;100859.13;10304859;28;20043;-80
2024/01/24 07:43:44;;;;;;;33.08;5.93;;;;;;;9.48;nan;100884.97;10319979;28;20041;-83
2024/01/24 07:48:45;;;;;;;37.80;4.45;;;;;;;9.45;nan;100899.22;10306667;28;20050;-80
2024/01/24 07:53:45;;;;;;;34.67;6.43;;;;;;;9.49;nan;100892.16;10313966;28;20039;-77
2024/01/24 07:58:47;;;;;;;43.42;7.05;;;;;;;9.39;nan;100911.19;10318073;28;20042;-79
2024/01/24 08:03:48;;;;;;;27.67;5.85;;;;;;;9.30;nan;100920.91;10317293;28;20038;-83
2024/01/24 08:08:49;;;;;;;28.42;5.93;;;;;;;9.36;nan;100952.88;10311972;28;20066;-85
2024/01/24 08:13:49;;;;;;;33.83;7.78;;;;;;;9.39;nan;100916.69;10296007;28;20106;-86
2024/01/24 08:18:51;;;;;;;29.15;6.47;;;;;;;9.34;nan;100946.81;10317947;28;20119;-81
2024/01/24 08:23:52;;;;;;;31.33;6.43;;;;;;;9.36;nan;100974.03;10298251;28;20034;-83
2024/01/24 08:28:52;;;;;;;28.23;5.20;;;;;;;9.36;nan;100952.88;10285196;28;20039;-86
2024/01/24 08:33:53;;;;;;;32.75;7.13;;;;;;;9.24;nan;100972.19;10292964;28;20042;-78
2024/01/24 08:38:53;;;;;;;35.55;6.10;;;;;;;9.40;nan;100976.06;10280284;28;20054;-81
2024/01/24 08:43:57;;;;;;;33.40;6.28;;;;;;;9.32;nan;100965.44;10292858;28;20039;-82
2024/01/24 08:48:57;;;;;;;34.15;6.32;;;;;;;9.35;nan;100992.44;10288071;28;20039;-84
2024/01/24 08:53:59;;;;;;;32.38;6.50;;;;;;;9.35;nan;101005.34;10282365;28;20474;-79
2024/01/24 08:58:59;;;;;;;31.73;6.70;;;;;;;9.31;nan;101010.50;10304086;28;20045;-79
2024/01/24 09:04:00;;;;;;;28.80;6.03;;;;;;;9.37;nan;101017.78;10302281;28;20042;-84
2024/01/24 09:09:00;;;;;;;33.58;6.45;;;;;;;9.33;nan;101041.31;10309698;28;20043;-80
2024/01/24 09:14:01;;;;;;;25.17;5.63;;;;;;;9.32;nan;101025.88;10297590;28;20109;-80
2024/01/24 09:19:01;;;;;;;33.97;6.72;;;;;;;9.29;nan;101042.88;10287832;28;20042;-85
2024/01/24 09:24:02;;;;;;;27.25;6.78;;;;;;;9.32;nan;101063.53;10303359;28;20050;-84
2024/01/24 09:29:02;;;;;;;30.08;7.65;;;;;;;9.37;nan;101052.66;10315657;28;20090;-79
2024/01/24 09:34:03;;;;;;;29.17;6.20;;;;;;;9.27;nan;101047.78;10298168;28;20051;-74
2024/01/24 09:39:03;;;;;;;32.20;5.45;;;;;;;9.30;nan;101052.78;10307239;28;20098;-84
2024/01/24 09:44:11;;;;;;;29.20;7.53;;;;;;;9.35;nan;101096.88;10302692;28;20036;-84
2024/01/24 09:49:12;;;;;;;29.40;5.70;;;;;;;9.21;nan;101087.19;10301525;28;20039;-83
2024/01/24 09:54:12;;;;;;;27.73;5.40;;;;;;;9.32;nan;101110.22;10282687;28;20058;-81
2024/01/24 09:59:13;;;;;;;33.95;6.15;;;;;;;9.50;nan;101119.16;10291907;28;20039;-84
2024/01/24 10:04:14;;;;;;;31.65;6.60;;;;;;;9.63;nan;101133.72;10275105;28;20042;-79
2024/01/24 10:09:15;;;;;;;27.38;6.03;;;;;;;9.61;nan;101127.63;10298105;28;20055;-76
2024/01/24 10:14:15;;;;;;;27.88;6.18;;;;;;;9.49;nan;101078.22;10320351;28;20035;-79
2024/01/24 10:19:18;;;;;;;25.10;5.00;;;;;;;9.68;nan;101147.59;10321111;28;20074;-80
2024/01/24 10:24:19;;;;;;;34.35;8.55;;;;;;;9.72;nan;101131.47;10299409;28;20217;-79
2024/01/24 10:29:19;;;;;;;18.55;5.70;;;;;;;9.75;nan;101148.28;10320620;28;20121;-85
2024/01/24 10:34:21;;;;;;;20.52;5.47;;;;;;;9.65;nan;101142.56;10313019;28;20121;-85
2024/01/24 10:39:23;;;;;;;26.77;4.15;;;;;;;9.87;nan;101129.03;10318000;28;20069;-81
2024/01/24 10:44:26;;;;;;;27.90;5.60;;;;;;;9.81;nan;101168.50;10303232;28;20146;-79
2024/01/24 10:49:27;;;;;;;24.92;5.32;;;;;;;9.59;nan;101116.91;10301171;28;20060;-85
2024/01/24 10:54:27;;;;;;;31.27;7.38;;;;;;;9.88;nan;101188.44;10291235;28;20035;-77
2024/01/24 10:59:28;;;;;;;37.95;6.25;;;;;;;9.88;nan;101186.53;10300977;28;20039;-82
2024/01/24 11:04:28;;;;;;;23.48;4.95;;;;;;;9.81;nan;101191.31;10318147;28;20062;-80
2024/01/24 11:09:45;;;;;;;32.50;6.53;;;;;;;9.88;nan;101233.28;10274209;28;20034;-84
2024/01/24 11:14:47;;;;;;;30.08;6.50;;;;;;;9.81;nan;101229.81;10300700;28;20082;-85
2024/01/24 11:19:47;;;;;;;35.67;6.13;;;;;;;9.77;nan;101258.88;10307702;28;20521;-81
2024/01/24 11:24:48;;;;;;;27.55;5.20;;;;;;;9.74;nan;101251.13;10303382;28;20053;-81
2024/01/24 11:29:50;;;;;;;31.58;6.57;;;;;;;9.78;nan;101268.81;10290643;28;20039;-78
2024/01/24 11:35:15;;;;;;;22.60;5.20;;;;;;;9.78;nan;101268.81;10308003;28;20106;-81
2024/01/24 11:40:16;;;;;;;31.00;6.80;;;;;;;9.79;nan;101258.66;10303183;28;20084;-76
2024/01/24 11:45:17;;;;;;;30.55;4.45;;;;;;;9.82;nan;101264.50;10306109;28;20048;-85
2024/01/24 11:50:17;;;;;;;28.23;5.65;;;;;;;9.69;nan;101308.72;10259636;28;20072;-80
2024/01/24 11:55:19;;;;;;;26.63;4.75;;;;;;;9.68;nan;101318.06;10285601;28;20134;-85
2024/01/24 12:00:20;;;;;;;30.17;4.53;;;;;;;9.67;nan;101336.47;10300087;28;20495;-80
2024/01/24 12:05:20;;;;;;;24.83;6.28;;;;;;;9.66;nan;101348.53;10295776;28;20035;-79
2024/01/24 12:10:21;;;;;;;27.60;5.35;;;;;;;9.69;nan;101352.72;10295912;28;20038;-80
2024/01/24 12:15:21;;;;;;;32.95;7.15;;;;;;;9.66;nan;101377.94;10296626;28;20110;-84
2024/01/24 12:20:22;;;;;;;30.48;5.43;;;;;;;9.64;nan;101388.34;10266888;28;20102;-79
2024/01/24 12:25:23;;;;;;;33.92;6.70;;;;;;;9.60;nan;101403.63;10311874;28;20035;-81
2024/01/24 12:30:27;;;;;;;29.67;5.25;;;;;;;9.65;nan;101385.34;10312860;28;20715;-79
2024/01/24 12:35:28;;;;;;;24.40;5.40;;;;;;;9.76;nan;101400.19;10300801;28;20094;-80
2024/01/24 12:40:29;;;;;;;28.80;6.28;;;;;;;9.84;nan;101416.34;10290998;28;20047;-79
2024/01/24 12:45:29;;;;;;;24.67;5.88;;;;;;;9.88;nan;101401.06;10299172;28;20042;-79
2024/01/24 12:50:30;;;;;;;25.08;5.88;;;;;;;9.97;nan;101419.97;10312382;28;20050;-79
2024/01/24 12:55:30;;;;;;;28.02;5.63;;;;;;;9.88;nan;101425.81;10298125;28;20042;-78
2024/01/24 13:00:32;;;;;;;20.73;4.75;;;;;;;9.97;nan;101430.97;10300730;28;20035;-79
2024/01/24 13:05:33;;;;;;;32.92;5.43;;;;;;;9.97;nan;101463.97;10325018;28;20046;-78
2024/01/24 13:10:34;;;;;;;22.38;4.43;;;;;;;10.05;nan;101449.88;10320079;28;20038;-79
2024/01/24 13:15:35;;;;;;;26.75;6.80;;;;;;;10.01;nan;101481.69;10314411;28;20038;-79
2024/01/24 13:20:36;;;;;;;27.65;5.82;;;;;;;10.08;nan;101486.00;10319192;28;20055;-77
2024/01/24 13:25:36;;;;;;;24.92;5.85;;;;;;;10.05;nan;101477.38;10325656;28;20038;-77
2024/01/24 13:30:38;;;;;;;27.25;6.45;;;;;;;10.23;nan;101518.59;10316262;28;20031;-76
2024/01/24 13:35:38;;;;;;;39.17;5.35;;;;;;;10.24;nan;101500.16;10309494;28;20034;-77
2024/01/24 13:40:39;;;;;;;27.75;5.22;;;;;;;10.07;nan;101527.50;10310775;28;20050;-79
2024/01/24 13:45:39;;;;;;;28.10;6.65;;;;;;;9.88;nan;101534.97;10318247;28;20548;-78
2024/01/24 13:50:40;;;;;;;27.25;5.93;;;;;;;9.70;nan;101544.94;10301661;28;20031;-76
2024/01/24 13:55:40;;;;;;;26.10;6.18;;;;;;;9.28;nan;101495.38;10305987;28;20034;-69
2024/01/24 14:00:41;;;;;;;25.83;5.35;;;;;;;9.49;nan;101572.94;10320619;28;20050;-78
2024/01/24 14:05:42;;;;;;;34.63;5.57;;;;;;;9.42;nan;101592.22;10303443;28;20034;-78
2024/01/24 14:10:42;;;;;;;29.88;5.80;;;;;;;9.35;nan;101594.22;10300777;28;20030;-76
2024/01/24 14:15:43;;;;;;;33.70;6.13;;;;;;;9.41;nan;101619.97;10301034;28;20031;-75
2024/01/24 14:20:43;;;;;;;24.08;5.93;;;;;;;9.35;nan;101623.63;10321122;28;20058;-77
2024/01/24 14:25:44;;;;;;;28.10;6.80;;;;;;;9.22;nan;101649.31;10317393;28;20125;-75
2024/01/24 14:30:45;;;;;;;29.15;6.15;;;;;;;9.19;nan;101682.75;10320207;28;20049;-76
2024/01/24 14:35:46;;;;;;;36.30;7.03;;;;;;;9.09;nan;101678.63;10308868;28;20068;-74
2024/01/24 14:40:46;;;;;;;42.65;6.07;;;;;;;8.99;nan;101683.78;10317372;28;20042;-77
2024/01/24 14:45:47;;;;;;;28.30;5.25;;;;;;;8.89;nan;101673.28;10314415;28;20055;-79
2024/01/24 14:50:47;;;;;;;45.35;8.13;;;;;;;8.87;nan;101711.09;10289053;28;20042;-78
2024/01/24 14:55:47;;;;;;;26.05;5.40;;;;;;;8.82;nan;101738.38;10298459;28;20038;-77
2024/01/24 15:00:48;;;;;;;26.67;5.07;;;;;;;8.79;nan;101744.31;10302737;28;20046;-77
2024/01/24 15:05:48;;;;;;;31.23;7.40;;;;;;;8.71;nan;101757.47;10310318;28;20513;-77
2024/01/24 15:10:49;;;;;;;31.63;5.60;;;;;;;8.48;nan;101734.16;10275598;28;20050;-79
2024/01/24 15:15:50;;;;;;;34.33;6.45;;;;;;;8.59;nan;101774.63;10296585;28;20039;-77
2024/01/24 15:20:50;;;;;;;28.95;5.72;;;;;;;8.50;nan;101755.91;10291978;28;20065;-80
2024/01/24 15:25:51;;;;;;;34.33;6.25;;;;;;;8.19;nan;101743.78;10313491;28;20038;-78
2024/01/24 15:30:51;;;;;;;28.83;5.60;;;;;;;8.37;nan;101786.94;10319995;28;20050;-75
2024/01/24 15:35:52;;;;;;;44.53;9.73;;;;;;;8.33;nan;101821.34;10317573;28;21633;-79
2024/01/24 15:40:53;;;;;;;31.38;6.20;;;;;;;8.29;nan;101801.75;10316097;28;20038;-79
2024/01/24 15:45:53;;;;;;;24.80;8.23;;;;;;;8.29;nan;101834.69;10308458;28;20780;-77
2024/01/24 15:50:54;;;;;;;30.42;6.75;;;;;;;8.12;nan;101801.38;10314555;28;20042;-77
2024/01/24 15:55:55;;;;;;;34.60;8.63;;;;;;;8.19;nan;101835.13;10316949;28;20026;-78
2024/01/24 16:00:55;;;;;;;25.45;6.32;;;;;;;8.18;nan;101869.09;10315887;28;20066;-77
2024/01/24 16:05:55;;;;;;;37.05;7.55;;;;;;;7.99;nan;101854.34;10318086;28;20042;-77
2024/01/24 16:10:56;;;;;;;39.55;8.63;;;;;;;8.04;nan;101894.84;10311040;28;20510;-75
2024/01/24 16:15:56;;;;;;;34.55;6.75;;;;;;;7.98;nan;101906.66;10313845;28;20564;-76
2024/01/24 16:20:58;;;;;;;26.20;5.07;;;;;;;7.91;nan;101912.16;10300562;28;20043;-71
2024/01/24 16:25:58;;;;;;;38.42;6.85;;;;;;;7.84;nan;101906.69;10294102;28;20129;-77
2024/01/24 16:30:59;;;;;;;23.17;5.57;;;;;;;7.83;nan;101905.00;10284298;28;20043;-77
2024/01/24 16:35:59;;;;;;;23.63;5.45;;;;;;;7.84;nan;101939.56;10281939;28;20109;-77
2024/01/24 16:41:00;;;;;;;33.97;5.95;;;;;;;7.79;nan;101944.88;10304229;28;20061;-77
2024/01/24 16:46:00;;;;;;;38.55;6.75;;;;;;;7.72;nan;101946.75;10291072;28;20062;-79
2024/01/24 16:51:01;;;;;;;27.73;5.88;;;;;;;7.68;nan;101962.75;10283743;28;20036;-77
2024/01/24 16:56:01;;;;;;;34.20;8.95;;;;;;;7.63;nan;101959.81;10290938;28;20051;-78
2024/01/24 17:01:03;;;;;;;33.20;4.80;;;;;;;7.66;nan;101964.84;10280953;28;20078;-75
2024/01/24 17:06:07;;;;;;;27.63;6.28;;;;;;;7.66;nan;101980.47;10300588;28;20049;-75
2024/01/24 17:11:07;;;;;;;32.05;5.95;;;;;;;7.55;nan;101984.66;10297863;28;20055;-77
2024/01/24 17:16:08;;;;;;;29.58;5.90;;;;;;;7.52;nan;101995.19;10293589;28;20042;-78
2024/01/24 17:21:08;;;;;;;35.00;7.15;;;;;;;7.43;nan;102002.75;10287225;28;20038;-78
2024/01/24 17:26:09;;;;;;;25.23;4.93;;;;;;;7.13;nan;101967.47;10298500;28;20054;-77
2024/01/24 17:31:09;;;;;;;42.70;7.03;;;;;;;7.35;nan;102003.78;10298081;28;20042;-76
2024/01/24 17:36:10;;;;;;;34.50;7.18;;;;;;;7.33;nan;102027.78;10302995;28;20045;-77
2024/01/24 17:41:12;;;;;;;27.20;6.07;;;;;;;7.34;nan;102028.63;10320436;28;20038;-77
2024/01/24 17:46:13;;;;;;;35.10;7.25;;;;;;;7.28;nan;102039.38;10322170;28;20034;-76
2024/01/24 17:51:13;;;;;;;27.00;7.70;;;;;;;7.15;nan;102038.44;10328528;28;20039;-76
2024/01/24 17:56:14;;;;;;;39.22;8.73;;;;;;;7.13;nan;102052.38;10307400;28;20038;-76
2024/01/24 18:01:14;;;;;;;37.20;7.28;;;;;;;6.80;nan;102016.56;10313555;28;20074;-78
2024/01/24 18:06:15;;;;;;;31.52;6.10;;;;;;;6.97;nan;102075.44;10318184;28;20058;-79
2024/01/24 18:11:16;;;;;;;31.85;5.68;;;;;;;7.00;nan;102085.13;10315307;28;20042;-78
2024/01/24 18:16:16;;;;;;;34.55;6.30;;;;;;;6.98;nan;102085.31;10286546;28;20072;-77
2024/01/24 18:21:17;;;;;;;24.50;6.40;;;;;;;6.98;nan;102088.06;10322654;28;20171;-77
2024/01/24 18:26:17;;;;;;;24.60;6.45;;;;;;;6.92;nan;102094.34;10312648;28;20043;-79
2024/01/24 18:31:17;;;;;;;36.83;7.78;;;;;;;6.89;nan;102092.00;10325489;28;20157;-76
2024/01/24 18:36:18;;;;;;;39.22;6.68;;;;;;;6.99;nan;102113.56;10320033;28;20062;-78
2024/01/24 18:41:18;;;;;;;35.90;5.60;;;;;;;7.02;nan;102100.31;10320073;28;20042;-79
2024/01/24 18:46:19;;;;;;;35.72;7.40;;;;;;;6.95;nan;102101.31;10321623;28;20050;-79
2024/01/24 18:51:19;;;;;;;37.45;6.90;;;;;;;6.90;nan;102101.91;10321398;28;20039;-77
2024/01/24 18:56:20;;;;;;;26.58;6.55;;;;;;;6.85;nan;102116.19;10324197;28;20046;-78
2024/01/24 19:01:20;;;;;;;33.50;6.47;;;;;;;6.85;nan;102137.25;10319451;28;20049;-79
2024/01/24 19:06:21;;;;;;;32.83;6.75;;;;;;;6.85;nan;102142.72;10322242;28;20050;-78
2024/01/24 19:11:22;;;;;;;33.30;5.68;;;;;;;6.83;nan;102163.97;10294355;28;20486;-74
2024/01/24 19:16:23;;;;;;;34.75;6.30;;;;;;;6.89;nan;102170.56;10310839;28;20046;-79
2024/01/24 19:21:23;;;;;;;37.40;6.80;;;;;;;6.74;nan;102159.69;10300517;28;20125;-80
2024/01/24 19:26:24;;;;;;;36.30;4.72;;;;;;;6.80;nan;102173.44;10312831;28;20042;-80
2024/01/24 19:31:24;;;;;;;39.90;7.05;;;;;;;6.70;nan;102161.13;10319265;28;20042;-80
2024/01/24 19:36:25;;;;;;;50.63;9.60;;;;;;;6.75;nan;102167.69;10317041;28;20027;-79
2024/01/24 19:41:25;;;;;;;27.88;6.22;;;;;;;6.57;nan;102134.50;10319002;28;20038;-79
2024/01/24 19:46:26;;;;;;;32.72;5.53;;;;;;;6.69;nan;102164.91;10317394;28;20034;-82
2024/01/24 19:51:26;;;;;;;34.85;7.78;;;;;;;6.73;nan;102168.94;10299295;28;20042;-80
2024/01/24 19:56:27;;;;;;;36.00;6.75;;;;;;;6.59;nan;102166.06;10308925;28;20039;-75
2024/01/24 20:01:27;;;;;;;25.98;5.38;;;;;;;6.66;nan;102175.22;10312667;28;20054;-78
2024/01/24 20:06:28;;;;;;;31.77;5.50;;;;;;;6.66;nan;102179.84;10309550;28;20050;-80
2024/01/24 20:11:28;;;;;;;31.30;6.40;;;;;;;6.69;nan;102192.28;10311469;28;20569;-80
2024/01/24 20:16:29;;;;;;;33.08;7.22;;;;;;;6.69;nan;102186.81;10312488;28;20043;-78
2024/01/24 20:21:29;;;;;;;32.08;5.97;;;;;;;6.63;nan;102172.84;10312460;28;20472;-78
2024/01/24 20:26:30;;;;;;;34.80;7.75;;;;;;;6.67;nan;102179.63;10322887;28;20046;-79
2024/01/24 20:31:30;;;;;;;25.48;5.40;;;;;;;6.62;nan;102182.13;10314345;28;20030;-79
2024/01/24 20:36:30;;;;;;;31.25;7.90;;;;;;;6.60;nan;102180.63;10311304;28;20042;-78
2024/01/24 20:41:31;;;;;;;39.15;6.53;;;;;;;6.70;nan;102183.88;10316958;28;20038;-73
2024/01/24 20:46:31;;;;;;;23.95;4.47;;;;;;;6.65;nan;102189.91;10318121;28;20042;-78
2024/01/24 20:51:32;;;;;;;35.72;6.90;;;;;;;6.51;nan;102168.97;10314418;28;20064;-78
2024/01/24 20:56:32;;;;;;;28.55;5.13;;;;;;;6.66;nan;102186.16;10319556;28;20416;-79
2024/01/24 21:01:33;;;;;;;36.53;6.95;;;;;;;6.65;nan;102187.19;10315411;28;20039;-79
2024/01/24 21:06:33;;;;;;;29.30;6.25;;;;;;;6.58;nan;102193.66;10319854;28;20038;-79
2024/01/24 21:11:34;;;;;;;23.48;4.68;;;;;;;6.43;nan;102182.78;10314256;28;20093;-80
2024/01/24 21:16:35;;;;;;;27.02;6.22;;;;;;;6.50;nan;102205.56;10318476;28;20039;-78
2024/01/24 21:21:36;;;;;;;25.35;4.45;;;;;;;6.51;nan;102218.22;10305940;28;20039;-78
2024/01/24 21:26:36;;;;;;;30.52;5.03;;;;;;;6.50;nan;102227.47;10319613;28;20046;-78
2024/01/24 21:31:37;;;;;;;23.48;4.50;;;;;;;6.46;nan;102221.50;10332278;28;20043;-77
2024/01/24 21:36:38;;;;;;;36.55;7.00;;;;;;;6.49;nan;102228.50;10319060;28;20042;-79
2024/01/24 21:41:38;;;;;;;25.27;5.63;;;;;;;6.46;nan;102248.88;10304051;28;20435;-79
2024/01/24 21:46:39;;;;;;;32.10;5.43;;;;;;;6.45;nan;102216.25;10306795;28;20069;-79
2024/01/24 21:51:39;;;;;;;33.95;6.60;;;;;;;6.19;nan;102181.25;10304497;28;20034;-79
2024/01/24 21:56:39;;;;;;;28.98;6.22;;;;;;;6.43;nan;102229.28;10323807;28;20157;-79
2024/01/24 22:01:40;;;;;;;32.22;6.38;;;;;;;6.41;nan;102242.31;10324420;28;20046;-78
2024/01/24 22:06:40;;;;;;;36.55;6.75;;;;;;;6.36;nan;102264.75;10327028;28;20030;-79
2024/01/24 22:11:41;;;;;;;33.70;5.78;;;;;;;6.33;nan;102256.09;10321906;28;20533;-77
2024/01/24 22:16:41;;;;;;;21.00;5.25;;;;;;;6.55;nan;102255.09;10321080;28;20134;-80
2024/01/24 22:21:42;;;;;;;29.38;5.13;;;;;;;6.61;nan;102251.56;10323558;28;20035;-80
2024/01/24 22:26:43;;;;;;;35.83;5.70;;;;;;;6.80;nan;102260.16;10316971;28;20067;-79
2024/01/24 22:31:44;;;;;;;21.65;5.20;;;;;;;6.94;nan;102262.00;10320502;28;20070;-79
2024/01/24 22:36:44;;;;;;;25.48;5.25;;;;;;;7.02;nan;102270.06;10305024;28;20034;-79
2024/01/24 22:41:45;;;;;;;16.30;5.50;;;;;;;7.00;nan;102272.16;10323865;28;20038;-81
2024/01/24 22:46:45;;;;;;;29.52;4.90;;;;;;;7.11;nan;102262.59;10322067;28;20258;-79
2024/01/24 22:51:46;;;;;;;24.45;5.38;;;;;;;7.18;nan;102273.59;10317505;28;20042;-80
2024/01/24 22:56:46;;;;;;;23.23;5.00;;;;;;;7.19;nan;102269.81;10305609;28;20487;-80
2024/01/24 23:01:47;;;;;;;34.05;7.28;;;;;;;7.18;nan;102279.06;10314313;28;20051;-73
2024/01/24 23:06:47;;;;;;;29.58;5.70;;;;;;;7.04;nan;102262.50;10305404;28;20062;-79
2024/01/24 23:11:48;;;;;;;32.05;6.90;;;;;;;7.20;nan;102277.00;10323760;28;20039;-77
2024/01/24 23:16:48;;;;;;;27.70;5.32;;;;;;;7.13;nan;102282.41;10320173;28;20039;-79
2024/01/24 23:21:49;;;;;;;26.80;5.22;;;;;;;7.23;nan;102323.97;10317231;28;20031;-78
2024/01/24 23:26:49;;;;;;;26.38;6.03;;;;;;;7.08;nan;102304.06;10313454;28;20042;-79
2024/01/24 23:31:50;;;;;;;31.40;5.68;;;;;;;7.13;nan;102325.38;10288949;28;20074;-79